Time;durP1;ratioP1;P1;durP2;ratioP2;P2;SDS_P1;SDS_P2;PMS_P1;PMS_P2;Temp;Humidity;BMP_temperature;BMP_pressure;BME280_temperature;BME280_humidity;BME280_pressure;Samples;Min_cycle;Max_cycle;Signal;HPM_P1;HPM_P2
2021/01/02 00:02:05;;;;;;;28.23;14.27;;;5.40;94.30;;;;;;4994999;28;20045;-76
2021/01/02 00:05:04;;;;;;;27.47;12.27;;;5.40;94.30;;;;;;5007947;28;20042;-75
2021/01/02 00:07:49;;;;;;;26.90;12.07;;;5.40;94.30;;;;;;5026117;28;20459;-74
2021/01/02 00:10:21;;;;;;;22.30;10.70;;;5.40;94.40;;;;;;5010563;28;20125;-74
2021/01/02 00:13:24;;;;;;;23.25;12.23;;;5.40;94.40;;;;;;5010637;28;20046;-75
2021/01/02 00:16:16;;;;;;;25.45;12.52;;;5.40;94.40;;;;;;5023742;28;20096;-75
2021/01/02 00:19:16;;;;;;;23.83;12.43;;;5.40;94.30;;;;;;5010912;28;20104;-75
2021/01/02 00:22:01;;;;;;;24.43;11.60;;;5.40;94.30;;;;;;5010369;28;20042;-74
2021/01/02 00:24:54;;;;;;;25.27;12.03;;;5.40;94.40;;;;;;5010410;28;20064;-75
2021/01/02 00:27:43;;;;;;;24.65;11.07;;;5.40;94.40;;;;;;5010276;28;20079;-74
2021/01/02 00:30:33;;;;;;;26.67;12.97;;;5.40;94.40;;;;;;5008069;28;20506;-75
2021/01/02 00:33:12;;;;;;;24.80;12.20;;;5.40;94.40;;;;;;5026353;28;20042;-75
2021/01/02 00:35:41;;;;;;;23.80;11.40;;;5.40;94.40;;;;;;5010734;28;20026;-74
2021/01/02 00:38:08;;;;;;;24.47;12.10;;;5.40;94.40;;;;;;4992249;28;20065;-74
2021/01/02 00:40:38;;;;;;;26.83;12.87;;;5.40;94.40;;;;;;4989546;28;20409;-74
2021/01/02 00:43:06;;;;;;;27.07;13.77;;;5.40;94.40;;;;;;5011090;28;20413;-74
2021/01/02 00:45:35;;;;;;;27.17;14.33;;;5.40;94.30;;;;;;4990363;28;20121;-74
2021/01/02 00:48:04;;;;;;;25.67;12.47;;;5.40;94.30;;;;;;4994754;28;20409;-79
2021/01/02 00:50:32;;;;;;;30.83;15.00;;;5.40;94.30;;;;;;5028115;28;20056;-74
2021/01/02 00:53:31;;;;;;;27.40;14.60;;;5.40;94.30;;;;;;5013249;28;20076;-74
2021/01/02 00:56:40;;;;;;;29.33;14.30;;;5.40;94.30;;;;;;4968058;28;20070;-74
2021/01/02 00:59:25;;;;;;;32.70;14.50;;;5.40;94.30;;;;;;5031944;28;20058;-74
2021/01/02 01:02:29;;;;;;;29.50;15.33;;;5.30;94.30;;;;;;5012787;28;20081;-75
2021/01/02 01:05:07;;;;;;;32.28;15.45;;;5.30;94.30;;;;;;5013658;28;20046;-75
2021/01/02 01:07:36;;;;;;;29.93;15.73;;;5.30;94.30;;;;;;5012959;28;20053;-74
2021/01/02 01:10:08;;;;;;;36.43;16.50;;;5.30;94.30;;;;;;5012824;28;20041;-74
2021/01/02 01:12:40;;;;;;;31.58;15.55;;;5.30;94.30;;;;;;5025324;28;20053;-75
2021/01/02 01:15:09;;;;;;;30.50;13.82;;;5.30;94.30;;;;;;4996411;28;20042;-74
2021/01/02 01:17:49;;;;;;;33.27;15.17;;;5.30;94.30;;;;;;5022482;28;20084;-75
2021/01/02 01:20:17;;;;;;;26.53;13.90;;;5.30;94.30;;;;;;5010850;28;20038;-74
2021/01/02 01:23:12;;;;;;;29.97;15.77;;;5.30;94.30;;;;;;5020078;28;20049;-74
2021/01/02 01:26:04;;;;;;;27.40;14.67;;;5.30;94.30;;;;;;5025206;28;20037;-74
2021/01/02 01:28:32;;;;;;;28.83;14.67;;;5.30;94.30;;;;;;5027265;28;20038;-73
2021/01/02 01:31:01;;;;;;;27.47;14.67;;;5.20;94.30;;;;;;5024949;28;20088;-74
2021/01/02 01:33:30;;;;;;;35.63;17.20;;;5.30;94.30;;;;;;5019598;28;20056;-75
2021/01/02 01:36:01;;;;;;;36.17;18.07;;;5.20;94.20;;;;;;5025856;28;20113;-75
2021/01/02 01:38:29;;;;;;;35.05;20.08;;;5.20;94.20;;;;;;5034390;28;20165;-75
2021/01/02 01:41:16;;;;;;;37.40;19.70;;;5.20;94.30;;;;;;5007155;28;20370;-75
2021/01/02 01:44:04;;;;;;;31.43;17.50;;;5.20;94.20;;;;;;5027841;28;20058;-75
2021/01/02 01:46:36;;;;;;;31.77;15.80;;;5.20;94.30;;;;;;5015726;28;20058;-75
2021/01/02 01:49:07;;;;;;;36.70;15.53;;;5.20;94.60;;;;;;5005687;28;20489;-75
2021/01/02 01:52:05;;;;;;;30.97;16.60;;;5.20;94.30;;;;;;5029841;28;20261;-75
2021/01/02 01:54:52;;;;;;;31.73;16.07;;;5.20;94.30;;;;;;5018649;28;20347;-75
2021/01/02 01:57:28;;;;;;;26.67;13.93;;;5.20;94.30;;;;;;5002061;28;20107;-75
2021/01/02 01:59:58;;;;;;;31.87;16.77;;;5.20;94.30;;;;;;5052440;28;20034;-75
2021/01/02 02:02:49;;;;;;;32.07;17.27;;;5.10;94.20;;;;;;5016110;28;20049;-75
2021/01/02 02:05:22;;;;;;;32.53;15.10;;;5.10;94.20;;;;;;5024312;28;20045;-75
2021/01/02 02:07:57;;;;;;;29.20;14.87;;;5.10;94.30;;;;;;4992311;28;20230;-79
2021/01/02 02:10:29;;;;;;;33.83;17.27;;;5.10;94.30;;;;;;5013651;28;20052;-80
2021/01/02 02:12:59;;;;;;;32.40;17.20;;;5.10;94.20;;;;;;5013627;28;20034;-80
2021/01/02 02:15:29;;;;;;;30.27;17.37;;;5.10;94.20;;;;;;5014773;28;20505;-80
2021/01/02 02:18:06;;;;;;;35.17;16.30;;;5.10;94.20;;;;;;5019077;28;20033;-79
2021/01/02 02:20:34;;;;;;;30.63;14.93;;;5.10;94.30;;;;;;5017461;28;20037;-80
2021/01/02 02:23:08;;;;;;;25.77;13.33;;;5.10;94.30;;;;;;5014632;28;20122;-80
2021/01/02 02:25:45;;;;;;;24.70;14.40;;;5.10;94.60;;;;;;5013692;28;20038;-79
2021/01/02 02:28:32;;;;;;;27.47;14.00;;;5.10;94.30;;;;;;5032830;28;20038;-79
2021/01/02 02:31:07;;;;;;;34.20;17.83;;;5.10;94.30;;;;;;5020472;28;20121;-79
2021/01/02 02:33:37;;;;;;;30.93;16.30;;;5.00;94.20;;;;;;5025355;28;20518;-79
2021/01/02 02:36:04;;;;;;;30.10;16.27;;;5.00;94.20;;;;;;5027565;28;20100;-79
2021/01/02 02:38:37;;;;;;;29.30;16.37;;;5.00;94.30;;;;;;5034333;28;20037;-79
2021/01/02 02:41:10;;;;;;;33.30;17.47;;;5.00;94.30;;;;;;5016715;28;20041;-79
2021/01/02 02:43:41;;;;;;;30.25;16.17;;;5.00;94.20;;;;;;5016768;28;20556;-80
2021/01/02 02:46:15;;;;;;;29.80;15.83;;;4.90;94.20;;;;;;5033274;28;20099;-79
2021/01/02 02:48:48;;;;;;;28.80;14.20;;;5.00;94.30;;;;;;5026679;28;20112;-80
2021/01/02 02:51:16;;;;;;;27.55;15.68;;;5.00;94.30;;;;;;4997070;28;20056;-79
2021/01/02 02:53:45;;;;;;;28.47;15.50;;;4.90;94.30;;;;;;5018418;28;20471;-79
2021/01/02 02:56:11;;;;;;;28.03;14.60;;;4.90;94.30;;;;;;5005019;28;20045;-80
2021/01/02 02:58:38;;;;;;;30.03;16.57;;;4.90;94.30;;;;;;5014478;28;20033;-79
2021/01/02 03:01:04;;;;;;;24.07;13.43;;;4.90;94.30;;;;;;5025824;28;20034;-79
2021/01/02 03:03:31;;;;;;;22.57;13.93;;;5.00;94.40;;;;;;5010423;28;20045;-79
2021/01/02 03:05:58;;;;;;;28.30;14.67;;;5.00;94.40;;;;;;5022312;28;20108;-79
2021/01/02 03:08:26;;;;;;;26.43;14.90;;;5.00;94.40;;;;;;5020505;28;20045;-79
2021/01/02 03:10:53;;;;;;;28.10;15.23;;;4.90;94.30;;;;;;5012328;28;20049;-79
2021/01/02 03:13:20;;;;;;;27.83;14.70;;;4.90;94.30;;;;;;5008863;28;20473;-79
2021/01/02 03:15:47;;;;;;;28.90;15.73;;;4.90;94.30;;;;;;5032281;28;20092;-80
2021/01/02 03:18:14;;;;;;;30.77;16.47;;;5.00;94.30;;;;;;5002989;28;20033;-80
2021/01/02 03:20:41;;;;;;;26.03;16.23;;;5.00;94.30;;;;;;5010232;28;20511;-79
2021/01/02 03:23:07;;;;;;;23.53;13.97;;;4.90;94.20;;;;;;5010173;28;20042;-79
2021/01/02 03:25:34;;;;;;;26.20;13.83;;;4.90;94.30;;;;;;5008146;28;20529;-79
2021/01/02 03:28:02;;;;;;;20.80;11.20;;;5.00;94.40;;;;;;5015876;28;20132;-79
2021/01/02 03:30:29;;;;;;;18.53;9.97;;;5.00;94.40;;;;;;5032272;28;20468;-79
2021/01/02 03:32:56;;;;;;;17.53;10.33;;;5.00;94.40;;;;;;5031690;28;20141;-79
2021/01/02 03:35:23;;;;;;;23.67;14.03;;;5.10;94.40;;;;;;5025087;28;20049;-80
2021/01/02 03:37:49;;;;;;;21.93;13.10;;;5.00;94.30;;;;;;5012844;28;20042;-75
2021/01/02 03:40:17;;;;;;;26.27;13.07;;;5.00;94.30;;;;;;5015159;28;20053;-75
2021/01/02 03:42:45;;;;;;;20.17;12.13;;;5.10;94.30;;;;;;5057233;28;20037;-75
2021/01/02 03:45:14;;;;;;;20.93;11.30;;;5.00;94.30;;;;;;4997375;28;20096;-75
2021/01/02 03:47:48;;;;;;;20.83;11.50;;;5.00;94.30;;;;;;4973716;28;20089;-75
2021/01/02 03:50:15;;;;;;;23.30;13.23;;;5.00;94.30;;;;;;4983227;28;20042;-75
2021/01/02 03:52:42;;;;;;;20.13;11.90;;;5.00;94.30;;;;;;5002473;28;20417;-75
2021/01/02 03:55:10;;;;;;;22.10;12.13;;;5.00;94.30;;;;;;5005724;28;20058;-75
2021/01/02 03:57:37;;;;;;;25.40;12.73;;;5.10;94.30;;;;;;4998904;28;20129;-75
2021/01/02 04:00:05;;;;;;;23.67;13.47;;;5.00;94.20;;;;;;5008368;28;20092;-75
2021/01/02 04:02:32;;;;;;;25.17;13.03;;;5.00;94.20;;;;;;4984317;28;20107;-75
2021/01/02 04:04:59;;;;;;;24.13;12.87;;;5.00;94.20;;;;;;4994534;28;20052;-75
2021/01/02 04:07:25;;;;;;;21.90;12.10;;;5.00;94.20;;;;;;4949164;28;20045;-75
2021/01/02 04:09:52;;;;;;;21.70;12.27;;;5.00;94.20;;;;;;4990036;28;20050;-75
2021/01/02 04:12:18;;;;;;;17.37;11.10;;;5.00;94.30;;;;;;4993318;28;20049;-75
2021/01/02 04:14:45;;;;;;;29.07;14.20;;;5.00;94.30;;;;;;5002244;28;20035;-75
2021/01/02 04:17:11;;;;;;;24.57;12.57;;;5.00;94.30;;;;;;4995017;28;20392;-81
2021/01/02 04:19:38;;;;;;;23.67;13.93;;;5.00;94.20;;;;;;5011039;28;20038;-79
2021/01/02 04:22:08;;;;;;;24.27;13.57;;;5.00;94.20;;;;;;4995782;28;20049;-79
2021/01/02 04:24:34;;;;;;;22.97;12.57;;;5.00;94.20;;;;;;4979470;28;20108;-79
2021/01/02 04:27:02;;;;;;;24.37;13.00;;;5.00;94.20;;;;;;4984876;28;20100;-79
2021/01/02 04:29:29;;;;;;;17.90;11.03;;;5.00;94.30;;;;;;4988291;28;20046;-80
2021/01/02 04:31:56;;;;;;;23.07;13.63;;;5.00;94.30;;;;;;5015772;28;20046;-80
2021/01/02 04:34:23;;;;;;;26.63;15.00;;;5.00;94.30;;;;;;4985094;28;20053;-79
2021/01/02 04:36:50;;;;;;;27.77;15.47;;;5.00;94.20;;;;;;4998272;28;20058;-80
2021/01/02 04:39:17;;;;;;;29.60;16.00;;;5.00;94.20;;;;;;5008291;28;20393;-79
2021/01/02 04:41:44;;;;;;;31.03;16.43;;;5.00;94.20;;;;;;4994348;28;20038;-80
2021/01/02 04:44:11;;;;;;;29.00;16.47;;;4.90;94.40;;;;;;5007602;28;20054;-80
2021/01/02 04:46:38;;;;;;;30.10;16.03;;;4.90;94.10;;;;;;4996455;28;20620;-79
2021/01/02 04:49:05;;;;;;;31.20;16.80;;;4.90;94.10;;;;;;4987969;28;20050;-80
2021/01/02 04:51:32;;;;;;;32.97;17.60;;;4.90;94.20;;;;;;4995696;28;20055;-80
2021/01/02 04:54:06;;;;;;;35.33;19.67;;;4.90;94.10;;;;;;5015165;28;20034;-80
2021/01/02 04:56:33;;;;;;;29.73;16.27;;;4.90;94.00;;;;;;5016548;28;20528;-80
2021/01/02 04:59:07;;;;;;;28.20;15.30;;;4.80;94.10;;;;;;5022268;28;20045;-80
2021/01/02 05:01:37;;;;;;;23.35;13.13;;;4.80;94.10;;;;;;5036309;28;20044;-79
2021/01/02 05:04:04;;;;;;;23.40;13.03;;;4.80;94.20;;;;;;5051617;28;20173;-79
2021/01/02 05:06:30;;;;;;;23.20;13.53;;;4.90;94.20;;;;;;5034846;28;20037;-79
2021/01/02 05:08:59;;;;;;;24.20;14.53;;;4.90;94.50;;;;;;5022014;28;20058;-79
2021/01/02 05:11:33;;;;;;;23.60;13.03;;;4.90;94.20;;;;;;5018464;28;20052;-79
2021/01/02 05:14:04;;;;;;;22.00;13.07;;;4.90;94.20;;;;;;5031310;28;20037;-79
2021/01/02 05:16:36;;;;;;;26.87;13.40;;;4.90;94.20;;;;;;5014954;28;20038;-79
2021/01/02 05:19:14;;;;;;;33.17;18.87;;;4.90;94.20;;;;;;5014772;28;20066;-79
2021/01/02 05:21:48;;;;;;;29.57;17.00;;;4.80;94.10;;;;;;5023831;28;20134;-80
2021/01/02 05:24:16;;;;;;;26.27;14.40;;;4.80;94.10;;;;;;5019509;28;20046;-79
2021/01/02 05:26:44;;;;;;;26.67;15.77;;;4.80;94.20;;;;;;5021697;28;20456;-79
2021/01/02 05:29:21;;;;;;;27.77;15.60;;;4.80;94.10;;;;;;5004657;28;20042;-79
2021/01/02 05:31:53;;;;;;;24.17;14.67;;;4.80;94.10;;;;;;5021518;28;20041;-80
2021/01/02 05:34:22;;;;;;;28.43;16.40;;;4.80;94.10;;;;;;5004217;28;20037;-80
2021/01/02 05:37:16;;;;;;;28.10;17.00;;;4.80;94.10;;;;;;5008682;28;20040;-79
2021/01/02 05:39:50;;;;;;;;;;;4.80;94.10;;;;;;5020484;28;20046;-79
2021/01/02 05:42:20;;;;;;;29.97;16.93;;;4.70;94.10;;;;;;5025025;28;19921;-80
2021/01/02 05:44:47;;;;;;;30.80;17.57;;;4.70;94.10;;;;;;5020239;28;20064;-79
2021/01/02 05:47:20;;;;;;;31.03;17.03;;;4.70;94.10;;;;;;5022509;28;20033;-79
2021/01/02 05:49:49;;;;;;;29.80;17.30;;;4.70;94.10;;;;;;5018177;28;20049;-79
2021/01/02 05:52:17;;;;;;;33.40;18.33;;;4.70;94.00;;;;;;5013910;28;20563;-79
2021/01/02 05:54:46;;;;;;;34.80;18.60;;;4.70;94.00;;;;;;5001713;28;20125;-79
2021/01/02 05:57:14;;;;;;;35.00;17.27;;;4.60;94.00;;;;;;5008348;28;20087;-79
2021/01/02 05:59:42;;;;;;;32.10;18.97;;;4.50;94.00;;;;;;5022819;28;20053;-79
2021/01/02 06:02:19;;;;;;;32.50;16.83;;;4.50;94.00;;;;;;5032743;28;20029;-79
2021/01/02 06:05:06;;;;;;;36.17;18.93;;;4.50;94.10;;;;;;5034502;28;20049;-79
2021/01/02 06:07:49;;;;;;;39.17;21.67;;;4.50;94.10;;;;;;5015137;28;20045;-79
2021/01/02 06:10:15;;;;;;;39.28;20.77;;;4.50;94.10;;;;;;5013332;28;20095;-79
2021/01/02 06:12:43;;;;;;;40.17;22.43;;;4.40;94.10;;;;;;5021581;28;20049;-79
2021/01/02 06:15:13;;;;;;;41.60;23.57;;;4.40;94.00;;;;;;5033527;28;20041;-79
2021/01/02 06:17:46;;;;;;;43.03;23.07;;;4.40;94.00;;;;;;5016537;28;20646;-79
2021/01/02 06:20:15;;;;;;;41.53;24.20;;;4.30;94.00;;;;;;5033528;28;20034;-78
2021/01/02 06:22:43;;;;;;;39.70;22.10;;;4.30;94.00;;;;;;5034538;28;20049;-79
2021/01/02 06:25:11;;;;;;;41.60;22.10;;;4.30;94.30;;;;;;5016845;28;20045;-80
2021/01/02 06:27:39;;;;;;;43.33;22.57;;;4.20;94.10;;;;;;5034021;28;20068;-79
2021/01/02 06:30:07;;;;;;;49.10;25.77;;;4.20;94.20;;;;;;5026536;28;20048;-79
2021/01/02 06:32:35;;;;;;;45.17;23.90;;;4.20;94.10;;;;;;5004081;28;20060;-79
2021/01/02 06:35:10;;;;;;;41.70;22.77;;;4.10;94.10;;;;;;5012951;28;20088;-79
2021/01/02 06:37:49;;;;;;;44.30;21.87;;;4.20;94.20;;;;;;5013164;28;20041;-79
2021/01/02 06:40:25;;;;;;;43.73;23.53;;;4.20;94.20;;;;;;5007200;28;20389;-79
2021/01/02 06:42:53;;;;;;;40.50;21.40;;;4.20;94.30;;;;;;5021530;28;20045;-79
2021/01/02 06:45:38;;;;;;;34.63;18.53;;;4.20;94.30;;;;;;5026144;28;20061;-79
2021/01/02 06:48:17;;;;;;;31.50;16.37;;;4.20;94.30;;;;;;5027860;28;20041;-79
2021/01/02 06:50:48;;;;;;;39.17;19.70;;;4.20;94.30;;;;;;5022104;28;20061;-79
2021/01/02 06:53:24;;;;;;;37.80;19.90;;;4.20;94.30;;;;;;5014604;28;20041;-79
2021/01/02 06:56:10;;;;;;;37.40;18.93;;;4.30;94.30;;;;;;5005593;28;20049;-79
2021/01/02 06:58:44;;;;;;;38.37;19.97;;;4.20;94.30;;;;;;5061536;28;20152;-79
2021/01/02 07:01:17;;;;;;;43.00;22.43;;;4.20;94.50;;;;;;5054983;28;20513;-79
2021/01/02 07:03:48;;;;;;;52.00;27.73;;;4.20;94.20;;;;;;5025248;28;20040;-81
2021/01/02 07:06:22;;;;;;;47.90;23.80;;;4.20;94.50;;;;;;5025660;28;20044;-79
2021/01/02 07:08:59;;;;;;;;;;;4.20;94.20;;;;;;5014359;28;20060;-80
2021/01/02 07:11:45;;;;;;;45.70;23.97;;;4.10;94.20;;;;;;5033567;28;20363;-75
2021/01/02 07:14:12;;;;;;;43.40;21.93;;;4.10;94.30;;;;;;5013762;28;20045;-75
2021/01/02 07:16:50;;;;;;;37.63;19.70;;;4.10;94.30;;;;;;5028252;28;20076;-76
2021/01/02 07:19:36;;;;;;;39.27;19.37;;;4.20;94.40;;;;;;5029658;28;20041;-76
2021/01/02 07:22:04;;;;;;;37.77;18.33;;;4.20;94.40;;;;;;5014618;28;20045;-76
2021/01/02 07:24:36;;;;;;;41.80;21.23;;;4.20;94.40;;;;;;5023496;28;20044;-75
2021/01/02 07:27:05;;;;;;;40.70;20.27;;;4.20;94.40;;;;;;5022513;28;20118;-75
2021/01/02 07:29:37;;;;;;;37.00;19.77;;;4.20;94.30;;;;;;5023841;28;20054;-75
2021/01/02 07:32:05;;;;;;;42.80;21.37;;;4.20;94.30;;;;;;5021364;28;20249;-75
2021/01/02 07:34:32;;;;;;;40.40;21.13;;;4.20;94.30;;;;;;5021010;28;20041;-75
2021/01/02 07:37:04;;;;;;;51.27;25.07;;;4.20;94.30;;;;;;5014060;28;20037;-75
2021/01/02 07:39:32;;;;;;;49.15;25.75;;;4.20;94.30;;;;;;5025729;28;20115;-76
2021/01/02 07:42:10;;;;;;;43.90;22.00;;;4.20;94.30;;;;;;5008352;28;20045;-76
2021/01/02 07:44:39;;;;;;;42.17;21.17;;;4.20;94.40;;;;;;5023303;28;20057;-75
2021/01/02 07:47:06;;;;;;;41.40;21.47;;;4.20;94.40;;;;;;5021639;28;20050;-75
2021/01/02 07:49:34;;;;;;;46.93;21.70;;;4.20;94.70;;;;;;5022042;28;20041;-76
2021/01/02 07:52:02;;;;;;;50.03;23.80;;;4.20;94.40;;;;;;5015613;28;20046;-76
2021/01/02 07:54:30;;;;;;;48.83;24.27;;;4.20;94.40;;;;;;4985924;28;20045;-76
2021/01/02 07:56:57;;;;;;;48.83;25.13;;;4.20;94.40;;;;;;5012793;28;20056;-76
2021/01/02 07:59:38;;;;;;;41.90;20.27;;;4.20;94.40;;;;;;5019398;28;20042;-76
2021/01/02 08:02:21;;;;;;;;;;;4.20;94.40;;;;;;5019619;28;20046;-76
2021/01/02 08:04:50;;;;;;;44.30;21.83;;;4.20;94.40;;;;;;5013913;28;20381;-76
2021/01/02 08:07:17;;;;;;;45.03;21.03;;;4.20;94.40;;;;;;5012958;28;20038;-76
2021/01/02 08:09:45;;;;;;;41.87;20.67;;;4.20;94.40;;;;;;5022147;28;20072;-76
2021/01/02 08:12:13;;;;;;;36.10;17.90;;;4.20;94.40;;;;;;5029739;28;20486;-75
2021/01/02 08:14:48;;;;;;;43.53;21.57;;;4.30;94.50;;;;;;4998139;28;20065;-75
2021/01/02 08:17:23;;;;;;;40.90;19.33;;;4.30;94.50;;;;;;5014639;28;20104;-76
2021/01/02 08:19:50;;;;;;;36.37;17.73;;;4.30;94.40;;;;;;5006686;28;20184;-76
2021/01/02 08:22:30;;;;;;;37.50;19.17;;;4.30;94.50;;;;;;5016555;28;20045;-76
2021/01/02 08:25:01;;;;;;;40.30;19.50;;;4.30;94.50;;;;;;5010347;28;20045;-76
2021/01/02 08:27:32;;;;;;;42.37;20.17;;;4.30;94.50;;;;;;4978947;28;20054;-76
2021/01/02 08:30:07;;;;;;;41.67;21.03;;;4.30;94.40;;;;;;5012373;28;20392;-76
2021/01/02 08:32:36;;;;;;;42.40;20.30;;;4.30;94.40;;;;;;5012299;28;20050;-76
2021/01/02 08:35:16;;;;;;;38.60;19.50;;;4.30;94.40;;;;;;5023069;28;20401;-76
2021/01/02 08:37:44;;;;;;;42.30;19.80;;;4.30;94.50;;;;;;5018558;28;20053;-77
2021/01/02 08:40:16;;;;;;;40.83;19.57;;;4.30;94.50;;;;;;5004777;28;20627;-75
2021/01/02 08:42:45;;;;;;;41.73;19.73;;;4.40;94.50;;;;;;5029675;28;20441;-76
2021/01/02 08:45:14;;;;;;;39.00;18.47;;;4.40;94.50;;;;;;5026206;28;20048;-76
2021/01/02 08:47:41;;;;;;;40.13;19.77;;;4.40;94.50;;;;;;5030837;28;20099;-76
2021/01/02 08:50:13;;;;;;;42.17;20.27;;;4.40;94.50;;;;;;5014426;28;20401;-76
2021/01/02 08:52:43;;;;;;;45.47;22.80;;;4.40;94.40;;;;;;5023100;28;20049;-76
2021/01/02 08:55:11;;;;;;;55.67;24.63;;;4.40;94.40;;;;;;5005865;28;20049;-76
2021/01/02 08:57:46;;;;;;;56.17;25.00;;;4.40;94.30;;;;;;4998059;28;20088;-76
2021/01/02 09:00:13;;;;;;;39.93;19.17;;;4.40;94.30;;;;;;5008808;28;20053;-75
2021/01/02 09:02:42;;;;;;;42.27;19.37;;;4.30;94.40;;;;;;5011119;28;20061;-76
2021/01/02 09:05:26;;;;;;;42.27;18.63;;;4.40;94.40;;;;;;5007701;28;20050;-76
2021/01/02 09:07:56;;;;;;;44.67;20.57;;;4.40;94.40;;;;;;4988555;28;20061;-76
2021/01/02 09:10:36;;;;;;;44.30;19.37;;;4.40;94.40;;;;;;5017317;28;20125;-75
2021/01/02 09:13:02;;;;;;;43.73;23.33;;;4.40;94.40;;;;;;5017614;28;20528;-75
2021/01/02 09:16:05;;;;;;;53.90;23.83;;;4.40;94.30;;;;;;5030839;28;20111;-76
2021/01/02 09:18:32;;;;;;;43.53;19.85;;;4.50;94.30;;;;;;4992387;28;20042;-76
2021/01/02 09:21:15;;;;;;;40.60;19.03;;;4.40;94.40;;;;;;5015788;28;20402;-74
2021/01/02 09:23:57;;;;;;;35.67;16.40;;;4.40;94.40;;;;;;5020617;28;20054;-74
2021/01/02 09:26:31;;;;;;;38.50;18.07;;;4.50;94.50;;;;;;5017632;28;20057;-78
2021/01/02 09:28:59;;;;;;;33.07;15.70;;;4.50;94.40;;;;;;5031101;28;20052;-78
2021/01/02 09:31:26;;;;;;;32.83;14.40;;;4.50;94.40;;;;;;5018401;28;20072;-79
2021/01/02 09:33:53;;;;;;;30.20;13.80;;;4.50;94.40;;;;;;5024545;28;20132;-78
2021/01/02 09:36:21;;;;;;;43.60;18.43;;;4.60;94.50;;;;;;5027080;28;20034;-79
2021/01/02 09:38:50;;;;;;;47.27;21.23;;;4.60;94.40;;;;;;4982395;28;20046;-78
2021/01/02 09:41:20;;;;;;;53.43;24.33;;;4.60;94.30;;;;;;5013891;28;20560;-76
2021/01/02 09:43:47;;;;;;;42.00;19.03;;;4.60;94.20;;;;;;5021970;28;20062;-75
2021/01/02 09:46:20;;;;;;;40.30;18.80;;;4.60;94.20;;;;;;5031163;28;20049;-76
2021/01/02 09:48:49;;;;;;;32.80;15.77;;;4.60;94.30;;;;;;5026858;28;20124;-75
2021/01/02 09:51:16;;;;;;;37.83;16.63;;;4.60;94.30;;;;;;5023463;28;20049;-75
2021/01/02 09:53:43;;;;;;;40.23;18.23;;;4.60;94.30;;;;;;5027395;28;20045;-75
2021/01/02 09:56:10;;;;;;;42.03;19.03;;;4.70;94.40;;;;;;5025729;28;20037;-74
2021/01/02 09:58:36;;;;;;;51.80;21.83;;;4.70;94.30;;;;;;5013619;28;20054;-74
2021/01/02 10:01:05;;;;;;;44.50;22.07;;;4.60;94.20;;;;;;5006589;28;20049;-74
2021/01/02 10:03:32;;;;;;;41.03;20.20;;;4.70;94.20;;;;;;5030301;28;20041;-74
2021/01/02 10:05:58;;;;;;;39.40;18.53;;;4.60;94.20;;;;;;5006113;28;20037;-75
2021/01/02 10:08:25;;;;;;;49.27;22.97;;;4.60;94.20;;;;;;5013120;28;20081;-74
2021/01/02 10:10:52;;;;;;;47.83;21.03;;;4.60;94.20;;;;;;5014722;28;20072;-74
2021/01/02 10:13:20;;;;;;;46.60;21.23;;;4.60;94.20;;;;;;5008960;28;20060;-74
2021/01/02 10:15:52;;;;;;;50.07;21.90;;;4.60;94.30;;;;;;5019143;28;20124;-74
2021/01/02 10:18:22;;;;;;;40.77;18.73;;;4.60;94.20;;;;;;5065736;28;20057;-74
2021/01/02 10:20:48;;;;;;;42.00;18.80;;;4.60;94.30;;;;;;5021745;28;20029;-74
2021/01/02 10:23:17;;;;;;;38.17;18.03;;;4.60;94.30;;;;;;5010717;28;20038;-76
2021/01/02 10:25:44;;;;;;;41.07;17.77;;;4.60;94.30;;;;;;5025582;28;20122;-76
2021/01/02 10:28:10;;;;;;;41.33;19.57;;;4.60;94.30;;;;;;5024313;28;20049;-75
2021/01/02 10:30:37;;;;;;;45.40;19.67;;;4.70;94.20;;;;;;4991514;28;20493;-75
2021/01/02 10:33:03;;;;;;;53.97;22.50;;;4.70;94.20;;;;;;5028423;28;20116;-73
2021/01/02 10:35:34;;;;;;;48.13;21.13;;;4.60;94.40;;;;;;4979639;28;20042;-74
2021/01/02 10:38:03;;;;;;;49.47;20.13;;;4.60;94.10;;;;;;5036445;28;20037;-74
2021/01/02 10:40:29;;;;;;;45.27;21.37;;;4.60;94.10;;;;;;4993568;28;20097;-74
2021/01/02 10:42:56;;;;;;;47.83;20.80;;;4.70;94.20;;;;;;5018817;28;20065;-75
2021/01/02 10:45:22;;;;;;;43.37;20.67;;;4.70;94.20;;;;;;5014207;28;20128;-75
2021/01/02 10:47:49;;;;;;;43.50;21.00;;;4.70;94.10;;;;;;4989905;28;20041;-73
2021/01/02 10:50:16;;;;;;;42.20;18.83;;;4.70;94.10;;;;;;5027173;28;20103;-75
2021/01/02 10:52:42;;;;;;;43.10;19.00;;;4.70;94.20;;;;;;5000470;28;20054;-74
2021/01/02 10:55:09;;;;;;;37.23;16.80;;;4.70;94.10;;;;;;5023006;28;20108;-74
2021/01/02 10:57:36;;;;;;;34.63;14.97;;;4.70;94.20;;;;;;5015066;28;20140;-74
2021/01/02 11:00:06;;;;;;;32.97;14.50;;;4.70;94.20;;;;;;5024447;28;20533;-74
2021/01/02 11:02:33;;;;;;;33.97;16.30;;;4.80;94.20;;;;;;5032618;28;20034;-74
2021/01/02 11:04:59;;;;;;;29.60;14.17;;;4.80;94.20;;;;;;5021931;28;20489;-74
2021/01/02 11:07:26;;;;;;;34.30;14.87;;;4.80;94.20;;;;;;5020940;28;20517;-74
2021/01/02 11:09:55;;;;;;;36.60;17.07;;;4.80;94.20;;;;;;4997676;28;20092;-74
2021/01/02 11:12:23;;;;;;;37.33;15.77;;;4.90;94.20;;;;;;5020302;28;20059;-74
2021/01/02 11:14:52;;;;;;;34.33;15.47;;;4.90;94.20;;;;;;5022686;28;20037;-74
2021/01/02 11:17:20;;;;;;;37.63;16.70;;;4.90;94.20;;;;;;4996205;28;20076;-73
2021/01/02 11:19:47;;;;;;;38.87;19.33;;;4.90;94.10;;;;;;5014325;28;20034;-74
2021/01/02 11:22:14;;;;;;;41.57;18.83;;;4.90;94.00;;;;;;5023211;28;20461;-74
2021/01/02 11:24:43;;;;;;;36.30;17.20;;;4.90;94.00;;;;;;5027638;28;20065;-73
2021/01/02 11:27:10;;;;;;;40.57;19.13;;;5.00;94.10;;;;;;5019077;28;20116;-73
2021/01/02 11:29:36;;;;;;;46.73;21.43;;;5.00;94.00;;;;;;5029241;28;20048;-75
2021/01/02 11:32:07;;;;;;;46.77;20.80;;;4.90;93.90;;;;;;5002143;28;20046;-74
2021/01/02 11:34:34;;;;;;;38.97;19.20;;;4.90;93.90;;;;;;5021351;28;20647;-74
2021/01/02 11:37:02;;;;;;;47.30;20.77;;;4.90;94.00;;;;;;4986340;28;20045;-74
2021/01/02 11:39:30;;;;;;;44.30;20.47;;;4.90;94.00;;;;;;5020132;28;20104;-73
2021/01/02 11:42:02;;;;;;;45.33;21.60;;;4.90;94.00;;;;;;5015249;28;20638;-75
2021/01/02 11:44:28;;;;;;;35.73;16.27;;;4.90;94.00;;;;;;5014368;28;20588;-74
2021/01/02 11:46:57;;;;;;;31.40;16.17;;;4.90;94.00;;;;;;4979196;28;20043;-74
2021/01/02 11:49:27;;;;;;;33.10;15.40;;;5.00;94.10;;;;;;5005254;28;20494;-75
2021/01/02 11:51:56;;;;;;;35.20;14.43;;;5.00;94.30;;;;;;5015820;28;20056;-74
2021/01/02 11:54:25;;;;;;;33.27;14.57;;;5.00;94.30;;;;;;5026316;28;20080;-75
2021/01/02 11:56:52;;;;;;;37.77;17.03;;;5.00;94.10;;;;;;4997970;28;20037;-75
2021/01/02 11:59:19;;;;;;;34.53;17.33;;;5.10;94.10;;;;;;5028002;28;20061;-75
2021/01/02 12:01:52;;;;;;;40.17;18.13;;;5.10;94.00;;;;;;4996252;28;20096;-74
2021/01/02 12:04:22;;;;;;;42.20;18.33;;;5.10;94.00;;;;;;5031850;28;20091;-74
2021/01/02 12:06:50;;;;;;;37.43;16.83;;;5.10;93.90;;;;;;5011613;28;20434;-74
2021/01/02 12:09:19;;;;;;;39.53;17.67;;;5.20;94.00;;;;;;4996559;28;20054;-74
2021/01/02 12:11:47;;;;;;;34.40;14.77;;;5.20;93.90;;;;;;5025056;28;20080;-74
2021/01/02 12:14:20;;;;;;;31.97;15.17;;;5.20;93.90;;;;;;5027783;28;20099;-73
2021/01/02 12:16:50;;;;;;;27.77;14.13;;;5.20;93.90;;;;;;5030303;28;20053;-73
2021/01/02 12:19:21;;;;;;;36.67;15.83;;;5.20;93.90;;;;;;5043648;28;20046;-74
2021/01/02 12:21:49;;;;;;;32.27;14.53;;;5.10;93.90;;;;;;5028401;28;20547;-74
2021/01/02 12:24:15;;;;;;;28.33;13.23;;;5.10;93.90;;;;;;5026047;28;20120;-73
2021/01/02 12:26:44;;;;;;;26.60;12.20;;;5.10;94.00;;;;;;5000438;28;20065;-73
2021/01/02 12:29:11;;;;;;;24.60;11.83;;;5.10;94.10;;;;;;5007751;28;20045;-73
2021/01/02 12:31:46;;;;;;;27.60;12.07;;;5.10;94.10;;;;;;5030448;28;20045;-73
2021/01/02 12:34:14;;;;;;;23.73;12.03;;;5.10;94.20;;;;;;5030145;28;20045;-74
2021/01/02 12:36:47;;;;;;;31.47;13.13;;;5.10;94.40;;;;;;4998270;28;20041;-76
2021/01/02 12:39:16;;;;;;;29.80;13.20;;;5.10;94.10;;;;;;5011943;28;20494;-75
2021/01/02 12:41:43;;;;;;;30.57;14.47;;;5.20;94.10;;;;;;5003301;28;20068;-75
2021/01/02 12:44:12;;;;;;;29.73;13.23;;;5.10;94.00;;;;;;5015481;28;20046;-75
2021/01/02 12:46:41;;;;;;;27.50;12.50;;;5.10;94.00;;;;;;5020194;28;20052;-75
2021/01/02 12:49:08;;;;;;;24.50;11.67;;;5.10;94.00;;;;;;5015300;28;20370;-76
2021/01/02 12:51:35;;;;;;;29.47;12.50;;;5.10;94.00;;;;;;5008533;28;20048;-75
2021/01/02 12:54:04;;;;;;;32.53;13.07;;;5.10;94.10;;;;;;5019694;28;20044;-75
2021/01/02 12:56:31;;;;;;;28.43;13.17;;;5.10;94.00;;;;;;5000297;28;20045;-76
2021/01/02 12:59:03;;;;;;;33.80;15.40;;;5.00;94.00;;;;;;5029057;28;20048;-76
2021/01/02 13:01:40;;;;;;;31.00;13.43;;;5.00;94.00;;;;;;5020867;28;20088;-76